KCHO

Charlottesville-Albemarle Airport

Charlottesville, Virginia, USA
METAR KCHO 221453Z 19014G18KT 10SM CLR 09/00 A3032 RMK AO2 SLP268 T00890000 50001
Observed Flight Rules
Oct-22 @ 14:53 UTC (28 minutes ago) Visual Flight Rules
Wind Visibility Clouds
190° at 14 knots
 Gusting to 18 knots
10 miles
  • Clear skies
Temperatures Readings
Current 9°C / 48°F
Dewpoint 0°C / 32°F
Humidity 54%
Altimeter 30.32" Hg
Pressure 1026.8 hPa
Elevation 192
METAR KCHO 221453Z 19014G18KT 10SM CLR 09/00 A3032 RMK AO2 SLP268 T00890000 50001
Observed Flight Rules
Oct-22 @ 14:53 UTC
(28 minutes ago)
VFR
Wind Visibility
190° at 14 knots
 Gusting to 18 knots
10 miles
Clouds
  • Clear skies
Temperature Dewpoint
9°C / 48°F 0°C / 32°F
Humidity Altimeter Pressure
54% 30.32" Hg 1026.8 hPa